createdAt,value
2019-04-11T00:00:15.666Z,0.00
2019-04-11T00:01:16.335Z,0.00
2019-04-11T00:02:16.421Z,0.00
2019-04-11T00:03:15.640Z,0.00
2019-04-11T00:04:15.744Z,0.00
2019-04-11T00:05:15.564Z,0.00
2019-04-11T00:06:15.566Z,0.00
2019-04-11T00:07:16.211Z,0.00
2019-04-11T00:08:15.500Z,0.00
2019-04-11T00:09:16.646Z,0.00
2019-04-11T00:10:15.462Z,0.00
2019-04-11T00:11:15.587Z,0.00
2019-04-11T00:12:16.556Z,0.00
2019-04-11T00:13:21.684Z,0.00
2019-04-11T00:14:15.919Z,0.00
2019-04-11T00:15:16.066Z,0.00
2019-04-11T00:16:15.336Z,0.00
2019-04-11T00:17:15.317Z,0.00
2019-04-11T00:18:15.295Z,0.00
2019-04-11T00:19:15.602Z,0.00
2019-04-11T00:20:15.986Z,0.00
2019-04-11T00:21:16.946Z,0.00
2019-04-11T00:22:15.528Z,0.00
2019-04-11T00:23:16.266Z,0.00
2019-04-11T00:24:15.168Z,0.00
2019-04-11T00:25:15.686Z,0.00
2019-04-11T00:26:15.982Z,0.00
2019-04-11T00:27:15.110Z,0.00
2019-04-11T00:28:15.373Z,0.00
2019-04-11T00:29:16.324Z,0.00
2019-04-11T00:30:15.678Z,0.00
2019-04-11T00:31:15.021Z,0.00
2019-04-11T00:32:15.005Z,0.00
2019-04-11T00:33:15.930Z,0.00
2019-04-11T00:34:15.116Z,0.00
2019-04-11T00:35:15.487Z,0.00
2019-04-11T00:36:14.921Z,0.00
2019-04-11T00:37:14.901Z,0.00
2019-04-11T00:38:15.909Z,0.00
2019-04-11T00:39:15.220Z,0.00
2019-04-11T00:40:15.197Z,0.00
2019-04-11T00:41:15.474Z,0.00
2019-04-11T00:42:14.807Z,0.00
2019-04-11T00:43:27.145Z,0.00
2019-04-11T00:44:14.770Z,0.00
2019-04-11T00:45:15.721Z,0.00
2019-04-11T00:46:14.713Z,0.00
2019-04-11T00:47:15.146Z,0.00
2019-04-11T00:48:14.672Z,0.00
2019-04-11T00:49:14.648Z,0.00
2019-04-11T00:50:14.882Z,0.00
2019-04-11T00:51:14.605Z,0.00
2019-04-11T00:52:14.585Z,0.00
2019-04-11T00:53:14.566Z,0.00
2019-04-11T00:54:14.541Z,0.00
2019-04-11T00:55:15.391Z,0.00
2019-04-11T00:56:15.567Z,0.00
2019-04-11T00:57:14.883Z,0.00
2019-04-11T00:58:14.459Z,0.00
2019-04-11T00:59:14.440Z,0.00
2019-04-11T01:00:15.184Z,0.00
2019-04-11T01:01:15.567Z,0.00
2019-04-11T01:02:15.543Z,0.00
2019-04-11T01:03:14.355Z,0.00
2019-04-11T01:04:14.334Z,0.00
2019-04-11T01:05:15.140Z,0.00
2019-04-11T01:06:14.291Z,0.00
2019-04-11T01:07:14.527Z,0.00
2019-04-11T01:08:14.258Z,0.00
2019-04-11T01:09:14.227Z,0.00
2019-04-11T01:10:14.209Z,0.00
2019-04-11T01:11:14.193Z,0.00
2019-04-11T01:12:14.374Z,0.00
2019-04-11T01:13:15.680Z,0.00
2019-04-11T01:14:15.263Z,0.00
2019-04-11T01:15:15.200Z,0.00
2019-04-11T01:16:14.081Z,0.00
2019-04-11T01:17:14.931Z,0.00
2019-04-11T01:18:14.038Z,0.00
2019-04-11T01:19:14.274Z,0.00
2019-04-11T01:20:13.996Z,0.00
2019-04-11T01:21:13.979Z,0.00
2019-04-11T01:22:14.036Z,0.00
2019-04-11T01:23:15.107Z,0.00
2019-04-11T01:24:13.923Z,0.00
2019-04-11T01:25:14.721Z,0.00
2019-04-11T01:26:13.917Z,0.00
2019-04-11T01:27:13.975Z,0.00
2019-04-11T01:28:14.311Z,0.00
2019-04-11T01:29:13.807Z,0.00
2019-04-11T01:30:13.796Z,0.00
2019-04-11T01:31:13.764Z,0.00
2019-04-11T01:32:13.921Z,0.00
2019-04-11T01:33:13.721Z,0.00
2019-04-11T01:34:13.705Z,0.00
2019-04-11T01:35:13.693Z,0.00
2019-04-11T01:36:13.779Z,0.00
2019-04-11T01:37:13.637Z,0.00
2019-04-11T01:38:14.735Z,0.00
2019-04-11T01:39:13.795Z,0.00
2019-04-11T01:40:13.811Z,0.00
2019-04-11T01:41:14.119Z,0.00
2019-04-11T01:42:13.531Z,0.00
2019-04-11T01:43:13.607Z,0.00
2019-04-11T01:44:14.494Z,0.00
2019-04-11T01:45:13.606Z,0.00
2019-04-11T01:46:14.040Z,0.00
2019-04-11T01:47:13.426Z,0.00
2019-04-11T01:48:13.402Z,0.00
2019-04-11T01:49:14.308Z,0.00
2019-04-11T01:50:13.570Z,0.00
2019-04-11T01:51:13.759Z,0.00
2019-04-11T01:52:13.980Z,0.00
2019-04-11T01:53:13.297Z,0.00
2019-04-11T01:54:13.316Z,0.00
2019-04-11T01:55:14.326Z,0.00
2019-04-11T01:56:13.240Z,0.00
2019-04-11T01:57:13.867Z,0.00
2019-04-11T01:58:14.189Z,0.00
2019-04-11T01:59:13.239Z,0.00
2019-04-11T02:00:13.152Z,0.00
2019-04-11T02:01:13.128Z,0.00
2019-04-11T02:02:13.589Z,0.00
2019-04-11T02:03:13.082Z,0.00
2019-04-11T02:04:14.018Z,0.00
2019-04-11T02:05:13.042Z,0.00
2019-04-11T02:06:13.902Z,0.00
2019-04-11T02:07:14.199Z,0.00
2019-04-11T02:08:13.297Z,0.00
2019-04-11T02:09:13.766Z,0.00
2019-04-11T02:10:12.936Z,0.00
2019-04-11T02:11:13.014Z,0.00
2019-04-11T02:12:14.097Z,0.00
2019-04-11T02:13:12.872Z,0.00
2019-04-11T02:14:16.537Z,0.00
2019-04-11T02:15:12.830Z,0.00
2019-04-11T02:16:12.809Z,0.00
2019-04-11T02:17:12.788Z,0.00
2019-04-11T02:18:13.095Z,0.00
2019-04-11T02:19:12.742Z,0.00
2019-04-11T02:20:12.720Z,0.00
2019-04-11T02:21:13.634Z,0.00
2019-04-11T02:22:13.669Z,0.00
2019-04-11T02:23:13.020Z,0.00
2019-04-11T02:24:12.645Z,0.00
2019-04-11T02:25:12.622Z,0.00
2019-04-11T02:26:13.397Z,0.00
2019-04-11T02:27:12.621Z,0.00
2019-04-11T02:28:12.726Z,0.00
2019-04-11T02:29:13.059Z,0.00
2019-04-11T02:30:14.211Z,0.00
2019-04-11T02:31:13.855Z,0.00
2019-04-11T02:32:12.796Z,0.00
2019-04-11T02:33:14.163Z,0.00
2019-04-11T02:34:13.633Z,0.00
2019-04-11T02:35:13.463Z,0.00
2019-04-11T02:36:13.730Z,0.00
2019-04-11T02:37:13.449Z,0.00
2019-04-11T02:38:14.082Z,0.00
2019-04-11T02:39:17.097Z,0.00
2019-04-11T02:40:13.510Z,0.00
2019-04-11T02:41:14.082Z,0.00
2019-04-11T02:42:12.277Z,0.00
2019-04-11T02:43:13.370Z,0.00
2019-04-11T02:44:30.854Z,0.00
2019-04-11T02:45:24.870Z,0.00
2019-04-11T02:46:23.251Z,0.00
2019-04-11T02:47:18.204Z,0.00
2019-04-11T02:48:13.666Z,0.00
2019-04-11T02:49:12.103Z,0.00
2019-04-11T02:50:16.070Z,0.00
2019-04-11T02:51:12.500Z,0.00
2019-04-11T02:52:13.391Z,0.00
2019-04-11T02:53:12.565Z,0.00
2019-04-11T02:54:13.542Z,0.00
2019-04-11T02:55:13.020Z,0.00
2019-04-11T02:56:11.954Z,0.00
2019-04-11T02:57:12.166Z,0.00
2019-04-11T02:58:12.484Z,0.00
2019-04-11T02:59:13.340Z,0.00
2019-04-11T03:00:13.159Z,0.00
2019-04-11T03:01:12.914Z,0.00
2019-04-11T03:02:16.424Z,0.00
2019-04-11T03:03:12.981Z,0.00
2019-04-11T03:04:12.907Z,0.00
2019-04-11T03:05:13.627Z,0.00
2019-04-11T03:06:11.831Z,0.00
2019-04-11T03:07:12.258Z,0.00
2019-04-11T03:08:15.687Z,0.00
2019-04-11T03:09:13.329Z,0.00
2019-04-11T03:10:13.746Z,0.00
2019-04-11T03:11:11.821Z,0.00
2019-04-11T03:12:13.285Z,0.00
2019-04-11T03:13:12.669Z,0.00
2019-04-11T03:14:12.071Z,0.00
2019-04-11T03:15:28.826Z,0.00
2019-04-11T03:16:27.872Z,0.00
2019-04-11T03:17:19.470Z,0.00
2019-04-11T03:18:18.498Z,0.00
2019-04-11T03:19:25.415Z,0.00
2019-04-11T03:20:23.019Z,0.00
2019-04-11T03:21:17.962Z,0.00
2019-04-11T03:22:11.590Z,0.00
2019-04-11T03:23:14.515Z,0.00
2019-04-11T03:24:13.028Z,0.00
2019-04-11T03:25:11.673Z,0.00
2019-04-11T03:26:12.367Z,0.00
2019-04-11T03:27:12.028Z,0.00
2019-04-11T03:28:16.766Z,0.00
2019-04-11T03:29:12.836Z,0.00
2019-04-11T03:30:16.298Z,0.00
2019-04-11T03:31:53.746Z,0.00
2019-04-11T03:32:48.886Z,0.00
2019-04-11T03:34:15.721Z,0.00
2019-04-11T03:35:02.869Z,0.00
2019-04-11T03:37:38.594Z,0.00
2019-04-11T03:38:36.864Z,0.00
2019-04-11T03:39:32.848Z,0.00
2019-04-11T03:40:27.207Z,0.00
2019-04-11T03:41:26.991Z,0.00
2019-04-11T03:42:29.558Z,0.00
2019-04-11T03:43:24.158Z,0.00
2019-04-11T03:44:19.133Z,0.00
2019-04-11T03:45:33.424Z,0.00
2019-04-11T03:46:30.973Z,0.00
2019-04-11T03:47:25.366Z,0.00
2019-04-11T03:48:27.789Z,0.00
2019-04-11T03:49:23.955Z,0.00
2019-04-11T03:50:16.645Z,0.00
2019-04-11T03:51:11.440Z,0.00
2019-04-11T03:52:12.187Z,0.00
2019-04-11T03:53:11.654Z,0.00
2019-04-11T03:54:11.606Z,0.00
2019-04-11T03:55:11.148Z,0.00
2019-04-11T03:56:12.110Z,0.00
2019-04-11T03:57:10.624Z,0.00
2019-04-11T03:58:10.615Z,0.00
2019-04-11T03:59:14.012Z,0.00
2019-04-11T04:00:12.725Z,0.00
2019-04-11T04:01:11.549Z,0.00
2019-04-11T04:02:12.557Z,0.00
2019-04-11T04:03:11.237Z,0.00
2019-04-11T04:04:11.274Z,0.00
2019-04-11T04:05:10.723Z,0.00
2019-04-11T04:06:10.457Z,0.00
2019-04-11T04:07:12.332Z,0.00
2019-04-11T04:08:10.879Z,0.00
2019-04-11T04:09:10.825Z,0.00
2019-04-11T04:10:13.127Z,4.00
2019-04-11T04:11:10.315Z,4.00
2019-04-11T04:12:11.465Z,0.00
2019-04-11T04:13:15.378Z,4.00
2019-04-11T04:14:10.525Z,4.00
2019-04-11T04:15:13.021Z,4.00
2019-04-11T04:16:21.194Z,4.00
2019-04-11T04:17:11.013Z,4.00
2019-04-11T04:18:12.020Z,4.00
2019-04-11T04:19:13.578Z,4.00
2019-04-11T04:20:11.075Z,8.00
2019-04-11T04:21:10.821Z,8.00
2019-04-11T04:22:11.001Z,12.00
2019-04-11T04:23:11.859Z,12.00
2019-04-11T04:24:10.548Z,12.00
2019-04-11T04:25:10.364Z,16.00
2019-04-11T04:26:11.953Z,20.00
2019-04-11T04:27:10.324Z,16.00
2019-04-11T04:28:11.660Z,24.00
2019-04-11T04:29:11.362Z,24.00
2019-04-11T04:30:10.877Z,28.00
2019-04-11T04:31:11.495Z,32.00
2019-04-11T04:32:09.859Z,40.00
2019-04-11T04:33:10.704Z,44.00
2019-04-11T04:34:11.335Z,52.00
2019-04-11T04:35:14.475Z,60.00
2019-04-11T04:36:10.889Z,64.00
2019-04-11T04:37:09.742Z,72.00
2019-04-11T04:38:11.284Z,80.00
2019-04-11T04:39:10.657Z,92.00
2019-04-11T04:40:27.990Z,96.00
2019-04-11T04:41:19.713Z,112.00
2019-04-11T04:42:19.773Z,120.00
2019-04-11T04:43:11.479Z,132.00
2019-04-11T04:44:09.591Z,144.00
2019-04-11T04:45:11.781Z,160.00
2019-04-11T04:46:25.958Z,172.00
2019-04-11T04:47:19.413Z,192.00
2019-04-11T04:48:12.541Z,204.00
2019-04-11T04:49:11.027Z,224.00
2019-04-11T04:50:11.068Z,240.00
2019-04-11T04:51:11.234Z,260.00
2019-04-11T04:52:11.778Z,280.00
2019-04-11T04:53:09.392Z,304.00
2019-04-11T04:54:10.061Z,324.00
2019-04-11T04:55:10.622Z,348.00
2019-04-11T04:56:10.979Z,376.00
2019-04-11T04:57:12.470Z,400.00
2019-04-11T04:58:09.285Z,428.00
2019-04-11T04:59:10.072Z,456.00
2019-04-11T05:00:09.502Z,492.00
2019-04-11T05:01:10.030Z,524.00
2019-04-11T05:02:10.966Z,560.00
2019-04-11T05:03:09.873Z,600.00
2019-04-11T05:04:11.199Z,636.00
2019-04-11T05:05:09.553Z,668.00
2019-04-11T05:06:10.134Z,704.00
2019-04-11T05:07:09.653Z,744.00
2019-04-11T05:08:10.631Z,776.00
2019-04-11T05:09:10.585Z,816.00
2019-04-11T05:10:09.119Z,852.00
2019-04-11T05:11:08.996Z,900.00
2019-04-11T05:12:09.876Z,944.00
2019-04-11T05:13:09.911Z,984.00
2019-04-11T05:14:10.378Z,1024.00
2019-04-11T05:15:10.017Z,1068.00
2019-04-11T05:16:17.208Z,1112.00
2019-04-11T05:17:08.871Z,1156.00
2019-04-11T05:18:11.354Z,1196.00
2019-04-11T05:19:08.815Z,1240.00
2019-04-11T05:20:09.245Z,1284.00
2019-04-11T05:21:08.786Z,1324.00
2019-04-11T05:22:08.751Z,1356.00
2019-04-11T05:23:08.742Z,1392.00
2019-04-11T05:24:08.710Z,1440.00
2019-04-11T05:25:08.718Z,1484.00
2019-04-11T05:26:08.914Z,1528.00
2019-04-11T05:27:08.639Z,1564.00
2019-04-11T05:28:09.824Z,1604.00
2019-04-11T05:29:09.095Z,1652.00
2019-04-11T05:30:09.372Z,1700.00
2019-04-11T05:31:08.551Z,1748.00
2019-04-11T05:32:09.379Z,1796.00
2019-04-11T05:33:09.569Z,1848.00
2019-04-11T05:34:08.490Z,1896.00
2019-04-11T05:35:08.953Z,1948.00
2019-04-11T05:36:08.450Z,1996.00
2019-04-11T05:37:09.029Z,2044.00
2019-04-11T05:38:08.427Z,2096.00
2019-04-11T05:39:08.779Z,2152.00
2019-04-11T05:40:09.290Z,2204.00
2019-04-11T05:41:12.030Z,2252.00
2019-04-11T05:42:09.183Z,2296.00
2019-04-11T05:43:08.296Z,2340.00
2019-04-11T05:44:10.764Z,2380.00
2019-04-11T05:45:15.330Z,2428.00
2019-04-11T05:46:25.099Z,2468.00
2019-04-11T05:47:09.006Z,2520.00
2019-04-11T05:48:09.326Z,2568.00
2019-04-11T05:49:09.222Z,2620.00
2019-04-11T05:50:11.621Z,2664.00
2019-04-11T05:51:08.887Z,2708.00
2019-04-11T05:52:08.215Z,2752.00
2019-04-11T05:53:08.073Z,2796.00
2019-04-11T05:54:09.546Z,2848.00
2019-04-11T05:55:11.762Z,2896.00
2019-04-11T05:56:09.069Z,2952.00
2019-04-11T05:57:09.012Z,3008.00
2019-04-11T05:58:12.290Z,3060.00
2019-04-11T05:59:07.945Z,3116.00
2019-04-11T06:00:07.923Z,3168.00
2019-04-11T06:01:10.029Z,3220.00
2019-04-11T06:02:09.225Z,3276.00
2019-04-11T06:03:07.907Z,3336.00
2019-04-11T06:04:07.953Z,3396.00
2019-04-11T06:05:08.935Z,3452.00
2019-04-11T06:06:08.637Z,3512.00
2019-04-11T06:07:09.930Z,3576.00
2019-04-11T06:08:07.767Z,3640.00
2019-04-11T06:09:10.131Z,3692.00
2019-04-11T06:10:10.145Z,3740.00
2019-04-11T06:11:07.690Z,3792.00
2019-04-11T06:12:07.668Z,3832.00
2019-04-11T06:13:07.959Z,3872.00
2019-04-11T06:14:07.626Z,3920.00
2019-04-11T06:15:08.081Z,3968.00
2019-04-11T06:16:08.263Z,4012.00
2019-04-11T06:17:07.566Z,4060.00
2019-04-11T06:18:07.547Z,4108.00
2019-04-11T06:19:08.061Z,4164.00
2019-04-11T06:20:08.235Z,4208.00
2019-04-11T06:21:07.580Z,4252.00
2019-04-11T06:22:08.582Z,4308.00
2019-04-11T06:23:07.425Z,4368.00
2019-04-11T06:24:07.770Z,4428.00
2019-04-11T06:25:09.179Z,4492.00
2019-04-11T06:26:09.186Z,4548.00
2019-04-11T06:27:08.844Z,4608.00
2019-04-11T06:28:07.321Z,4672.00
2019-04-11T06:29:15.464Z,4724.00
2019-04-11T06:30:07.552Z,4780.00
2019-04-11T06:31:07.583Z,4836.00
2019-04-11T06:32:07.678Z,4888.00
2019-04-11T06:33:08.041Z,4944.00
2019-04-11T06:34:07.256Z,5008.00
2019-04-11T06:35:08.056Z,5100.00
2019-04-11T06:36:07.150Z,5168.00
2019-04-11T06:37:07.633Z,5240.00
2019-04-11T06:38:08.137Z,5328.00
2019-04-11T06:39:07.202Z,5416.00
2019-04-11T06:40:07.627Z,5500.00
2019-04-11T06:41:08.302Z,5584.00
2019-04-11T06:42:07.697Z,5672.00
2019-04-11T06:43:07.817Z,5832.00
2019-04-11T06:44:06.988Z,6204.00
2019-04-11T06:45:09.209Z,7004.00
2019-04-11T06:46:07.134Z,23776.00
2019-04-11T06:47:06.934Z,47168.00
2019-04-11T06:48:07.386Z,62368.00
2019-04-11T06:49:06.881Z,64384.00
2019-04-11T06:50:06.945Z,65312.00
2019-04-11T06:51:07.950Z,63264.00
2019-04-11T06:52:06.823Z,63776.00
2019-04-11T06:53:07.899Z,65280.00
2019-04-11T06:54:06.793Z,64416.00
2019-04-11T06:55:06.773Z,64608.00
2019-04-11T06:56:06.754Z,64736.00
2019-04-11T06:57:07.653Z,66560.00
2019-04-11T06:58:06.827Z,66368.00
2019-04-11T06:59:07.914Z,66432.00
2019-04-11T07:00:07.307Z,67168.00
2019-04-11T07:01:06.689Z,69024.00
2019-04-11T07:02:13.916Z,68992.00
2019-04-11T07:03:17.430Z,69888.00
2019-04-11T07:04:06.649Z,69216.00
2019-04-11T07:05:07.870Z,69408.00
2019-04-11T07:06:07.015Z,72448.00
2019-04-11T07:07:06.612Z,69792.00
2019-04-11T07:08:07.657Z,68608.00
2019-04-11T07:09:07.415Z,70528.00
2019-04-11T07:10:06.570Z,73312.00
2019-04-11T07:11:07.294Z,72448.00
2019-04-11T07:12:07.531Z,70528.00
2019-04-11T07:13:07.682Z,73088.00
2019-04-11T07:14:06.530Z,73952.00
2019-04-11T07:15:06.656Z,74752.00
2019-04-11T07:16:06.507Z,73568.00
2019-04-11T07:17:09.027Z,72416.00
2019-04-11T07:18:07.625Z,71136.00
2019-04-11T07:19:06.481Z,70944.00
2019-04-11T07:20:06.791Z,71200.00
2019-04-11T07:21:06.476Z,70400.00
2019-04-11T07:22:06.841Z,70464.00
2019-04-11T07:23:06.443Z,70048.00
2019-04-11T07:24:07.495Z,70080.00
2019-04-11T07:25:06.433Z,69536.00
2019-04-11T07:26:06.426Z,71808.00
2019-04-11T07:27:07.424Z,72192.00
2019-04-11T07:28:06.405Z,72416.00
2019-04-11T07:29:06.607Z,73440.00
2019-04-11T07:30:07.282Z,73376.00
2019-04-11T07:31:06.874Z,74016.00
2019-04-11T07:32:06.394Z,75456.00
2019-04-11T07:33:06.380Z,72896.00
2019-04-11T07:34:06.369Z,72256.00
2019-04-11T07:35:06.432Z,75744.00
2019-04-11T07:36:06.357Z,75840.00
2019-04-11T07:37:06.831Z,77888.00
2019-04-11T07:38:06.354Z,81568.00
2019-04-11T07:39:07.648Z,83168.00
2019-04-11T07:40:07.495Z,80896.00
2019-04-11T07:41:06.698Z,80000.00
2019-04-11T07:42:07.048Z,80384.00
2019-04-11T07:43:11.534Z,77312.00
2019-04-11T07:44:06.438Z,76416.00
2019-04-11T07:45:06.573Z,77248.00
2019-04-11T07:46:06.837Z,79456.00
2019-04-11T07:47:14.595Z,79552.00
2019-04-11T07:48:07.167Z,78752.00
2019-04-11T07:49:06.294Z,78560.00
2019-04-11T07:50:06.290Z,79104.00
2019-04-11T07:51:06.517Z,77600.00
2019-04-11T07:52:06.802Z,76224.00
2019-04-11T07:53:06.282Z,74784.00
2019-04-11T07:54:06.273Z,77504.00
2019-04-11T07:55:06.764Z,81440.00
2019-04-11T07:56:07.675Z,82976.00
2019-04-11T07:57:06.264Z,82272.00
2019-04-11T07:58:06.442Z,80992.00
2019-04-11T07:59:07.332Z,78368.00
2019-04-11T08:00:06.262Z,81440.00
2019-04-11T08:01:06.267Z,80800.00
2019-04-11T08:02:06.259Z,77760.00
2019-04-11T08:03:06.407Z,79808.00
2019-04-11T08:04:06.261Z,80224.00
2019-04-11T08:05:06.677Z,79232.00
2019-04-11T08:06:07.387Z,79296.00
2019-04-11T08:07:06.605Z,79936.00
2019-04-11T08:08:06.841Z,80672.00
2019-04-11T08:09:07.192Z,79616.00
2019-04-11T08:10:06.234Z,80352.00
2019-04-11T08:11:06.728Z,81728.00
2019-04-11T08:12:06.611Z,80896.00
2019-04-11T08:13:06.228Z,78784.00
2019-04-11T08:14:06.444Z,75840.00
2019-04-11T08:15:07.075Z,75328.00
2019-04-11T08:16:06.466Z,79168.00
2019-04-11T08:17:07.228Z,80416.00
2019-04-11T08:18:06.224Z,80096.00
2019-04-11T08:19:06.227Z,78400.00
2019-04-11T08:20:06.223Z,76864.00
2019-04-11T08:21:06.222Z,80128.00
2019-04-11T08:22:06.409Z,81824.00
2019-04-11T08:23:06.216Z,75168.00
2019-04-11T08:24:06.217Z,76416.00
2019-04-11T08:25:07.190Z,80224.00
2019-04-11T08:26:06.211Z,80256.00
2019-04-11T08:27:07.231Z,79904.00
2019-04-11T08:28:07.951Z,75968.00
2019-04-11T08:29:10.423Z,72800.00
2019-04-11T08:30:06.633Z,73952.00
2019-04-11T08:31:06.216Z,78432.00
2019-04-11T08:32:06.224Z,77216.00
2019-04-11T08:33:07.500Z,78080.00
2019-04-11T08:34:06.939Z,74560.00
2019-04-11T08:35:06.205Z,68608.00
2019-04-11T08:36:07.315Z,69056.00
2019-04-11T08:37:07.320Z,71808.00
2019-04-11T08:38:06.203Z,72096.00
2019-04-11T08:39:06.903Z,73440.00
2019-04-11T08:40:06.202Z,71296.00
2019-04-11T08:41:07.311Z,72384.00
2019-04-11T08:42:07.250Z,74496.00
2019-04-11T08:43:06.690Z,73664.00
2019-04-11T08:44:06.201Z,72064.00
2019-04-11T08:45:06.206Z,74368.00
2019-04-11T08:46:06.712Z,72928.00
2019-04-11T08:47:06.207Z,72352.00
2019-04-11T08:48:06.199Z,67616.00
2019-04-11T08:49:06.207Z,69888.00
2019-04-11T08:50:06.206Z,73984.00
2019-04-11T08:51:08.044Z,70080.00
2019-04-11T08:52:06.196Z,69120.00
2019-04-11T08:53:06.605Z,73952.00
2019-04-11T08:54:07.043Z,71168.00
2019-04-11T08:55:06.297Z,65728.00
2019-04-11T08:56:07.130Z,63648.00
2019-04-11T08:57:06.194Z,64736.00
2019-04-11T08:58:06.482Z,71424.00
2019-04-11T08:59:06.192Z,71136.00
2019-04-11T09:00:06.247Z,70176.00
2019-04-11T09:01:07.395Z,67616.00
2019-04-11T09:02:06.822Z,66624.00
2019-04-11T09:03:07.251Z,70464.00
2019-04-11T09:04:10.192Z,71168.00
2019-04-11T09:05:12.015Z,69856.00
2019-04-11T09:06:06.361Z,66368.00
2019-04-11T09:07:07.271Z,65248.00
2019-04-11T09:08:06.170Z,67360.00
2019-04-11T09:09:07.039Z,62496.00
2019-04-11T09:10:07.310Z,65216.00
2019-04-11T09:11:06.529Z,64672.00
2019-04-11T09:12:06.579Z,63040.00
2019-04-11T09:13:07.049Z,63776.00
2019-04-11T09:14:06.190Z,60896.00
2019-04-11T09:15:06.153Z,61440.00
2019-04-11T09:16:06.154Z,65504.00
2019-04-11T09:17:06.146Z,52096.00
2019-04-11T09:18:09.527Z,43648.00
2019-04-11T09:19:06.362Z,41824.00
2019-04-11T09:20:07.349Z,37088.00
2019-04-11T09:21:06.137Z,48576.00
2019-04-11T09:22:06.791Z,45184.00
2019-04-11T09:23:06.120Z,44096.00
2019-04-11T09:24:06.204Z,40704.00
2019-04-11T09:25:07.249Z,35296.00
2019-04-11T09:26:06.113Z,32896.00
2019-04-11T09:27:06.581Z,31488.00
2019-04-11T09:28:06.106Z,29440.00
2019-04-11T09:29:07.235Z,13312.00
2019-04-11T09:30:06.682Z,13780.00
2019-04-11T09:31:08.942Z,12564.00
2019-04-11T09:32:06.091Z,18432.00
2019-04-11T09:33:06.797Z,17824.00
2019-04-11T09:34:06.054Z,16864.00
2019-04-11T09:35:06.202Z,16000.00
2019-04-11T09:36:06.046Z,15660.00
2019-04-11T09:37:06.170Z,15552.00
2019-04-11T09:38:06.411Z,15096.00
2019-04-11T09:39:06.625Z,15136.00
2019-04-11T09:40:06.029Z,14968.00
2019-04-11T09:41:06.128Z,14724.00
2019-04-11T09:42:07.086Z,14436.00
2019-04-11T09:43:07.114Z,14352.00
2019-04-11T09:44:06.554Z,14036.00
2019-04-11T09:45:05.971Z,14060.00
2019-04-11T09:46:06.241Z,13952.00
2019-04-11T09:47:05.953Z,13792.00
2019-04-11T09:48:11.619Z,13740.00
2019-04-11T09:49:06.694Z,13552.00
2019-04-11T09:50:05.936Z,13436.00
2019-04-11T09:51:05.919Z,13264.00
2019-04-11T09:52:07.241Z,13096.00
2019-04-11T09:53:05.902Z,12992.00
2019-04-11T09:54:05.895Z,13076.00
2019-04-11T09:55:06.566Z,13156.00
2019-04-11T09:56:06.847Z,13204.00
2019-04-11T09:57:05.870Z,13068.00
2019-04-11T09:58:06.689Z,12864.00
2019-04-11T09:59:06.803Z,12696.00
2019-04-11T10:00:05.991Z,12612.00
2019-04-11T10:01:06.212Z,12704.00
2019-04-11T10:02:05.997Z,12892.00
2019-04-11T10:03:06.656Z,13228.00
2019-04-11T10:04:06.509Z,12984.00
2019-04-11T10:05:05.793Z,12972.00
2019-04-11T10:06:05.791Z,13160.00
2019-04-11T10:07:05.775Z,9492.00
2019-04-11T10:08:06.512Z,12544.00
2019-04-11T10:09:05.848Z,10464.00
2019-04-11T10:10:05.747Z,12200.00
2019-04-11T10:11:05.845Z,7288.00
2019-04-11T10:12:06.518Z,6828.00
2019-04-11T10:13:06.805Z,6924.00
2019-04-11T10:14:07.138Z,7184.00
2019-04-11T10:15:07.071Z,9932.00
2019-04-11T10:16:05.686Z,12204.00
2019-04-11T10:17:06.716Z,12336.00
2019-04-11T10:18:05.675Z,12508.00
2019-04-11T10:19:05.656Z,12608.00
2019-04-11T10:20:06.616Z,12448.00
2019-04-11T10:21:06.786Z,12308.00
2019-04-11T10:22:06.807Z,12200.00
2019-04-11T10:23:05.618Z,11932.00
2019-04-11T10:24:05.617Z,11576.00
2019-04-11T10:25:05.594Z,11332.00
2019-04-11T10:26:05.583Z,11260.00
2019-04-11T10:27:06.707Z,11008.00
2019-04-11T10:28:05.608Z,10848.00
2019-04-11T10:29:06.469Z,10856.00
2019-04-11T10:30:06.559Z,6908.00
2019-04-11T10:31:06.406Z,8024.00
2019-04-11T10:32:06.613Z,11632.00
2019-04-11T10:33:06.623Z,11588.00
2019-04-11T10:34:06.151Z,7120.00
2019-04-11T10:35:06.033Z,10672.00
2019-04-11T10:36:05.485Z,6748.00
2019-04-11T10:37:05.466Z,6580.00
2019-04-11T10:38:06.706Z,6816.00
2019-04-11T10:39:05.443Z,6928.00
2019-04-11T10:40:05.956Z,6928.00
2019-04-11T10:41:06.312Z,6840.00
2019-04-11T10:42:06.345Z,6848.00
2019-04-11T10:43:05.397Z,6852.00
2019-04-11T10:44:05.610Z,6876.00
2019-04-11T10:45:06.574Z,10124.00
2019-04-11T10:46:05.364Z,7132.00
2019-04-11T10:47:08.105Z,6868.00
2019-04-11T10:48:05.581Z,8748.00
2019-04-11T10:49:05.449Z,9440.00
2019-04-11T10:50:05.328Z,7728.00
2019-04-11T10:51:06.601Z,10680.00
2019-04-11T10:52:06.466Z,10396.00
2019-04-11T10:53:05.297Z,10808.00
2019-04-11T10:54:06.939Z,10864.00
2019-04-11T10:55:05.300Z,10400.00
2019-04-11T10:56:06.327Z,10956.00
2019-04-11T10:57:05.648Z,10924.00
2019-04-11T10:58:05.223Z,11060.00
2019-04-11T10:59:05.251Z,11020.00
2019-04-11T11:00:05.197Z,11120.00
2019-04-11T11:01:05.186Z,11356.00
2019-04-11T11:02:06.530Z,11292.00
2019-04-11T11:03:06.144Z,11240.00
2019-04-11T11:04:05.250Z,10796.00
2019-04-11T11:05:05.317Z,8488.00
2019-04-11T11:06:05.467Z,7564.00
2019-04-11T11:07:06.389Z,6696.00
2019-04-11T11:08:05.101Z,8796.00
2019-04-11T11:09:05.995Z,10468.00
2019-04-11T11:10:05.076Z,10796.00
2019-04-11T11:11:06.071Z,10856.00
2019-04-11T11:12:05.148Z,10764.00
2019-04-11T11:13:05.633Z,10768.00
2019-04-11T11:14:05.032Z,7304.00
2019-04-11T11:15:05.027Z,6708.00
2019-04-11T11:16:05.834Z,8464.00
2019-04-11T11:17:05.005Z,8132.00
2019-04-11T11:18:33.331Z,11140.00
2019-04-11T11:19:27.366Z,9980.00
2019-04-11T11:20:16.744Z,8628.00
2019-04-11T11:21:06.011Z,7460.00
2019-04-11T11:22:05.313Z,6800.00
2019-04-11T11:23:09.066Z,6512.00
2019-04-11T11:24:07.206Z,6656.00
2019-04-11T11:25:04.896Z,6412.00
2019-04-11T11:26:04.919Z,7408.00
2019-04-11T11:27:05.725Z,9060.00
2019-04-11T11:28:05.446Z,6376.00
2019-04-11T11:29:08.375Z,6480.00
2019-04-11T11:30:06.065Z,6708.00
2019-04-11T11:31:05.478Z,6764.00
2019-04-11T11:32:05.189Z,6640.00
2019-04-11T11:33:05.740Z,6400.00
2019-04-11T11:34:05.006Z,6180.00
2019-04-11T11:35:05.332Z,6040.00
2019-04-11T11:36:08.987Z,5928.00
2019-04-11T11:37:04.887Z,5800.00
2019-04-11T11:38:05.946Z,5648.00
2019-04-11T11:39:04.723Z,5552.00
2019-04-11T11:40:10.594Z,5492.00
2019-04-11T11:41:05.819Z,5436.00
2019-04-11T11:42:04.691Z,5332.00
2019-04-11T11:43:04.681Z,5228.00
2019-04-11T11:44:05.608Z,5144.00
2019-04-11T11:45:05.627Z,5008.00
2019-04-11T11:46:04.765Z,4888.00
2019-04-11T11:47:05.494Z,4816.00
2019-04-11T11:48:09.951Z,4792.00
2019-04-11T11:49:05.827Z,4748.00
2019-04-11T11:50:06.144Z,4664.00
2019-04-11T11:51:05.460Z,4584.00
2019-04-11T11:52:04.731Z,4416.00
2019-04-11T11:53:08.159Z,4232.00
2019-04-11T11:54:05.190Z,4056.00
2019-04-11T11:55:04.508Z,3900.00
2019-04-11T11:56:05.372Z,3776.00
2019-04-11T11:57:04.635Z,3688.00
2019-04-11T11:58:04.464Z,3612.00
2019-04-11T11:59:04.450Z,3564.00
2019-04-11T12:00:05.025Z,3540.00
2019-04-11T12:01:08.168Z,3512.00
2019-04-11T12:02:04.508Z,3464.00
2019-04-11T12:03:05.318Z,3432.00
2019-04-11T12:04:04.975Z,3436.00
2019-04-11T12:05:07.883Z,3480.00
2019-04-11T12:06:05.282Z,3536.00
2019-04-11T12:07:06.006Z,3588.00
2019-04-11T12:08:04.361Z,3664.00
2019-04-11T12:09:04.498Z,3716.00
2019-04-11T12:10:04.303Z,3744.00
2019-04-11T12:11:04.279Z,3796.00
2019-04-11T12:12:04.369Z,3812.00
2019-04-11T12:13:08.139Z,3812.00
2019-04-11T12:14:04.241Z,3808.00
2019-04-11T12:15:04.537Z,3824.00
2019-04-11T12:16:04.219Z,3828.00
2019-04-11T12:17:06.422Z,3832.00
2019-04-11T12:18:06.903Z,3860.00
2019-04-11T12:19:04.731Z,3896.00
2019-04-11T12:20:09.713Z,3928.00
2019-04-11T12:21:05.149Z,3936.00
2019-04-11T12:22:04.322Z,3916.00
2019-04-11T12:23:04.692Z,3916.00
2019-04-11T12:24:06.509Z,3912.00
2019-04-11T12:25:04.849Z,3884.00
2019-04-11T12:26:05.323Z,3836.00